createdAt,value
2022-08-01T00:01:16.864Z,1.33
2022-08-01T00:03:39.183Z,1.48
2022-08-01T00:06:01.449Z,1.30
2022-08-01T00:08:23.726Z,1.30
2022-08-01T00:10:46.000Z,1.30
2022-08-01T00:13:10.532Z,1.30
2022-08-01T00:15:33.323Z,1.45
2022-08-01T00:17:55.593Z,1.17
2022-08-01T00:20:17.889Z,1.40
2022-08-01T00:22:40.152Z,1.35
2022-08-01T00:25:02.732Z,1.20
2022-08-01T00:27:25.073Z,1.27
2022-08-01T00:30:10.280Z,1.65
2022-08-01T00:32:31.583Z,1.85
2022-08-01T00:34:53.874Z,1.33
2022-08-01T00:37:16.305Z,1.30
2022-08-01T00:39:38.582Z,1.65
2022-08-01T00:42:11.093Z,1.48
2022-08-01T00:44:33.366Z,1.60
2022-08-01T00:46:55.642Z,1.30
2022-08-01T00:49:18.082Z,1.85
2022-08-01T00:51:40.655Z,1.20
2022-08-01T00:54:03.053Z,1.60
2022-08-01T00:56:27.787Z,1.60
2022-08-01T00:58:50.418Z,1.30
2022-08-01T01:01:12.844Z,1.38
2022-08-01T01:03:57.643Z,1.20
2022-08-01T01:06:20.197Z,1.90
2022-08-01T01:08:50.391Z,1.75
2022-08-01T01:11:16.516Z,1.65
2022-08-01T01:13:50.374Z,1.58
2022-08-01T01:16:17.364Z,1.40
2022-08-01T01:18:40.978Z,1.48
2022-08-01T01:21:24.932Z,1.75
2022-08-01T01:23:47.384Z,1.58
2022-08-01T01:26:28.253Z,1.50
2022-08-01T01:29:02.373Z,1.50
2022-08-01T01:31:25.936Z,1.73
2022-08-01T01:33:50.068Z,1.90
2022-08-01T01:36:13.694Z,1.50
2022-08-01T01:38:38.089Z,1.70
2022-08-01T01:41:01.324Z,1.83
2022-08-01T01:43:29.084Z,2.10
2022-08-01T01:45:56.558Z,1.65
2022-08-01T01:48:20.548Z,1.90
2022-08-01T01:50:44.314Z,1.60
2022-08-01T01:53:07.275Z,1.85
2022-08-01T01:55:49.763Z,1.80
2022-08-01T01:58:14.211Z,1.77
2022-08-01T02:00:37.154Z,1.92
2022-08-01T02:03:00.928Z,1.95
2022-08-01T02:05:23.496Z,1.95
2022-08-01T02:07:46.456Z,2.10
2022-08-01T02:10:11.672Z,1.70
2022-08-01T02:12:36.768Z,1.50
2022-08-01T02:14:59.410Z,1.90
2022-08-01T02:17:22.564Z,2.10
2022-08-01T02:19:45.136Z,1.70
2022-08-01T02:22:09.592Z,1.80
2022-08-01T02:24:37.739Z,1.75
2022-08-01T02:27:02.716Z,1.95
2022-08-01T02:29:28.912Z,2.05
2022-08-01T02:31:55.582Z,2.00
2022-08-01T02:34:19.829Z,1.70
2022-08-01T02:36:42.272Z,1.90
2022-08-01T02:39:08.144Z,1.70
2022-08-01T02:41:32.579Z,2.00
2022-08-01T02:43:58.906Z,2.00
2022-08-01T02:46:27.516Z,2.10
2022-08-01T02:48:52.325Z,2.08
2022-08-01T02:51:15.339Z,2.00
2022-08-01T02:53:44.029Z,2.00
2022-08-01T02:56:07.652Z,2.15
2022-08-01T02:58:30.419Z,2.05
2022-08-01T03:00:52.940Z,1.97
2022-08-01T03:03:17.055Z,2.13
2022-08-01T03:05:41.056Z,2.25
2022-08-01T03:08:03.988Z,1.60
2022-08-01T03:10:28.225Z,1.97
2022-08-01T03:12:51.480Z,2.10
2022-08-01T03:15:14.677Z,2.40
2022-08-01T03:17:38.656Z,2.00
2022-08-01T03:20:03.747Z,2.17
2022-08-01T03:22:27.631Z,2.03
2022-08-01T03:24:51.671Z,1.90
2022-08-01T03:27:16.116Z,2.10
2022-08-01T03:29:39.139Z,1.80
2022-08-01T03:32:03.873Z,1.80
2022-08-01T03:34:26.402Z,1.87
2022-08-01T03:36:58.398Z,1.83
2022-08-01T03:39:21.916Z,1.90
2022-08-01T03:41:47.943Z,1.90
2022-08-01T03:44:12.457Z,1.73
2022-08-01T03:46:37.104Z,2.40
2022-08-01T03:49:02.370Z,2.20
2022-08-01T03:51:25.072Z,2.33
2022-08-01T03:53:49.464Z,2.67
2022-08-01T03:56:12.161Z,2.20
2022-08-01T03:58:35.260Z,2.13
2022-08-01T04:00:57.849Z,2.33
2022-08-01T04:03:20.316Z,2.70
2022-08-01T04:05:43.861Z,2.40
2022-08-01T04:08:09.594Z,2.63
2022-08-01T04:10:32.022Z,1.97
2022-08-01T04:12:54.291Z,1.70
2022-08-01T04:15:16.742Z,2.30
2022-08-01T04:17:39.019Z,2.53
2022-08-01T04:20:01.499Z,2.40
2022-08-01T04:22:23.768Z,2.50
2022-08-01T04:24:54.646Z,2.30
2022-08-01T04:27:50.193Z,2.37
2022-08-01T04:30:07.779Z,2.53
2022-08-01T04:32:31.731Z,2.30
2022-08-01T04:34:56.834Z,2.30
2022-08-01T04:37:19.670Z,2.30
2022-08-01T04:39:50.586Z,2.37
2022-08-01T04:42:14.768Z,2.03
2022-08-01T04:44:37.197Z,2.20
2022-08-01T04:47:01.903Z,2.00
2022-08-01T04:49:25.320Z,2.05
2022-08-01T04:51:58.578Z,2.00
2022-08-01T04:54:22.421Z,1.85
2022-08-01T04:56:44.749Z,1.52
2022-08-01T04:59:25.564Z,1.33
2022-08-01T05:01:51.939Z,1.30
2022-08-01T05:04:14.340Z,1.30
2022-08-01T05:06:36.587Z,1.30
2022-08-01T05:08:58.803Z,1.42
2022-08-01T05:11:23.042Z,1.27
2022-08-01T05:13:45.270Z,1.00
2022-08-01T05:16:10.596Z,1.13
2022-08-01T05:18:32.902Z,0.82
2022-08-01T05:20:55.217Z,0.80
2022-08-01T05:23:23.905Z,0.93
2022-08-01T05:26:01.330Z,0.77
2022-08-01T05:28:24.132Z,0.80
2022-08-01T05:30:46.508Z,0.75
2022-08-01T05:33:08.861Z,0.68
2022-08-01T05:35:48.030Z,0.80
2022-08-01T05:38:11.654Z,0.80
2022-08-01T05:40:37.349Z,0.63
2022-08-01T05:42:59.846Z,0.45
2022-08-01T05:45:22.168Z,0.40
2022-08-01T05:47:44.611Z,0.55
2022-08-01T05:50:07.091Z,0.55
2022-08-01T05:52:29.682Z,0.38
2022-08-01T05:54:51.967Z,0.30
2022-08-01T05:57:15.251Z,0.17
2022-08-01T05:59:37.598Z,0.17
2022-08-01T06:02:00.051Z,0.30
2022-08-01T06:04:22.416Z,0.17
2022-08-01T06:06:44.665Z,0.35
2022-08-01T06:09:07.020Z,0.43
2022-08-01T06:11:29.376Z,0.57
2022-08-01T06:13:51.658Z,0.60
2022-08-01T06:16:14.074Z,0.70
2022-08-01T06:18:36.321Z,0.50
2022-08-01T06:20:59.343Z,0.52
2022-08-01T06:23:32.562Z,0.70
2022-08-01T06:25:55.714Z,0.85
2022-08-01T06:28:17.953Z,0.85
2022-08-01T06:30:40.255Z,0.50
2022-08-01T06:33:09.652Z,0.73
2022-08-01T06:35:32.041Z,0.60
2022-08-01T06:37:54.504Z,0.55
2022-08-01T06:40:17.561Z,0.65
2022-08-01T06:42:40.279Z,0.70
2022-08-01T06:45:06.156Z,0.40
2022-08-01T06:47:28.468Z,0.60
2022-08-01T06:49:50.766Z,0.60
2022-08-01T06:52:13.021Z,0.50
2022-08-01T06:54:35.363Z,0.50
2022-08-01T06:56:57.724Z,0.60
2022-08-01T06:59:20.019Z,0.40
2022-08-01T07:01:42.351Z,0.50
2022-08-01T07:04:04.768Z,0.30
2022-08-01T07:06:27.382Z,0.50
2022-08-01T07:08:49.640Z,0.50
2022-08-01T07:11:11.911Z,0.43
2022-08-01T07:13:36.602Z,0.55
2022-08-01T07:16:06.516Z,0.40
2022-08-01T07:18:28.848Z,0.40
2022-08-01T07:20:54.361Z,0.30
2022-08-01T07:23:22.524Z,0.40
2022-08-01T07:25:55.886Z,0.60
2022-08-01T07:28:23.720Z,0.85
2022-08-01T07:30:46.871Z,0.50
2022-08-01T07:33:15.160Z,0.60
2022-08-01T07:35:39.418Z,0.55
2022-08-01T07:38:02.856Z,0.60
2022-08-01T07:40:25.535Z,0.70
2022-08-01T07:42:48.791Z,0.40
2022-08-01T07:45:12.765Z,0.30
2022-08-01T07:47:44.447Z,0.45
2022-08-01T07:50:07.880Z,0.60
2022-08-01T07:52:43.836Z,0.60
2022-08-01T07:57:47.665Z,0.52
2022-08-01T08:00:10.820Z,0.35
2022-08-01T08:02:39.694Z,0.60
2022-08-01T08:05:07.066Z,0.57
2022-08-01T08:10:15.782Z,0.55
2022-08-01T08:12:40.584Z,0.40
2022-08-01T08:15:11.026Z,0.50
2022-08-01T08:17:35.550Z,0.30
2022-08-01T08:20:03.564Z,0.30
2022-08-01T08:22:29.168Z,0.32
2022-08-01T08:25:00.793Z,0.30
2022-08-01T08:30:15.419Z,0.50
2022-08-01T08:32:40.428Z,0.47
2022-08-01T08:35:03.464Z,0.30
2022-08-01T08:37:32.046Z,0.43
2022-08-01T08:42:52.130Z,0.35
2022-08-01T08:45:15.604Z,0.32
2022-08-01T08:47:40.909Z,0.30
2022-08-01T08:50:07.142Z,0.60
2022-08-01T08:52:32.433Z,0.60
2022-08-01T08:54:55.498Z,0.40
2022-08-01T08:57:26.432Z,0.50
2022-08-01T08:59:51.614Z,0.50
2022-08-01T09:02:14.772Z,0.45
2022-08-01T09:04:39.608Z,0.55
2022-08-01T09:07:15.504Z,0.63
2022-08-01T09:09:40.855Z,0.55
2022-08-01T09:12:04.639Z,0.40
2022-08-01T09:14:31.273Z,0.50
2022-08-01T09:17:03.111Z,0.50
2022-08-01T09:19:39.544Z,0.57
2022-08-01T09:22:05.252Z,0.43
2022-08-01T09:24:30.813Z,0.60
2022-08-01T09:26:54.578Z,0.60
2022-08-01T09:29:37.391Z,0.50
2022-08-01T09:32:13.859Z,0.40
2022-08-01T09:34:36.908Z,0.40
2022-08-01T09:37:19.018Z,0.40
2022-08-01T09:39:57.099Z,0.40
2022-08-01T09:42:28.879Z,0.38
2022-08-01T09:45:00.523Z,0.50
2022-08-01T09:47:24.202Z,0.40
2022-08-01T09:49:57.410Z,0.65
2022-08-01T09:55:01.406Z,0.30
2022-08-01T09:57:26.318Z,0.50
2022-08-01T10:00:00.585Z,0.30
2022-08-01T10:02:45.385Z,0.40
2022-08-01T10:05:18.737Z,0.40
2022-08-01T10:08:00.967Z,0.40
2022-08-01T10:10:23.618Z,0.60
2022-08-01T10:12:56.711Z,0.20
2022-08-01T10:15:21.491Z,0.40
2022-08-01T10:17:50.448Z,0.40
2022-08-01T10:20:29.877Z,0.40
2022-08-01T10:22:57.198Z,0.50
2022-08-01T10:25:42.027Z,0.43
2022-08-01T10:28:12.184Z,0.55
2022-08-01T10:30:44.338Z,0.30
2022-08-01T10:33:15.117Z,0.50
2022-08-01T10:35:47.038Z,0.30
2022-08-01T10:38:17.036Z,0.50
2022-08-01T10:40:39.888Z,0.40
2022-08-01T10:43:04.158Z,0.30
2022-08-01T10:45:27.895Z,0.55
2022-08-01T10:48:20.672Z,0.60
2022-08-01T10:50:55.713Z,0.30
2022-08-01T10:53:24.091Z,0.50
2022-08-01T10:56:16.692Z,0.50
2022-08-01T10:58:42.119Z,0.40
2022-08-01T11:01:26.763Z,0.40
2022-08-01T11:04:04.410Z,0.50
2022-08-01T11:06:38.416Z,0.40
2022-08-01T11:09:05.912Z,0.40
2022-08-01T11:11:37.625Z,0.32
2022-08-01T11:14:06.417Z,0.50
2022-08-01T11:16:37.029Z,0.20
2022-08-01T11:19:00.615Z,0.70
2022-08-01T11:24:50.727Z,0.52
2022-08-01T11:27:33.773Z,0.65
2022-08-01T11:30:14.897Z,0.47
2022-08-01T11:33:10.778Z,0.30
2022-08-01T11:35:31.530Z,0.50
2022-08-01T11:38:21.060Z,0.40
2022-08-01T11:40:43.640Z,0.40
2022-08-01T11:43:17.792Z,0.45
2022-08-01T11:45:52.690Z,0.40
2022-08-01T11:48:27.533Z,0.40
2022-08-01T11:50:53.539Z,0.40
2022-08-01T11:53:18.942Z,0.52
2022-08-01T11:55:52.639Z,0.30
2022-08-01T11:58:29.455Z,0.30
2022-08-01T12:01:18.379Z,0.40
2022-08-01T12:03:40.964Z,0.40
2022-08-01T12:06:09.854Z,0.30
2022-08-01T12:08:40.558Z,0.30
2022-08-01T12:11:14.963Z,0.20
2022-08-01T12:13:45.896Z,0.30
2022-08-01T12:16:15.524Z,0.45
2022-08-01T12:18:45.364Z,0.50
2022-08-01T12:21:08.464Z,0.40
2022-08-01T12:23:33.665Z,0.30
2022-08-01T12:25:56.522Z,0.20
2022-08-01T12:28:19.887Z,0.30
2022-08-01T12:30:52.250Z,0.30
2022-08-01T12:33:21.858Z,0.22
2022-08-01T12:35:44.408Z,0.20
2022-08-01T12:38:08.965Z,0.22
2022-08-01T12:40:43.316Z,0.38
2022-08-01T12:43:08.806Z,0.38
2022-08-01T12:45:35.452Z,0.30
2022-08-01T12:48:00.618Z,0.30
2022-08-01T12:50:24.255Z,0.30
2022-08-01T12:52:51.562Z,0.32
2022-08-01T12:55:22.314Z,0.40
2022-08-01T12:57:50.774Z,0.35
2022-08-01T13:00:18.756Z,0.30
2022-08-01T13:02:44.900Z,0.40
2022-08-01T13:05:17.250Z,0.47
2022-08-01T13:07:45.593Z,0.30
2022-08-01T13:10:09.182Z,0.60
2022-08-01T13:12:36.239Z,0.50
2022-08-01T13:15:21.455Z,0.40
2022-08-01T13:17:49.294Z,0.30
2022-08-01T13:20:13.954Z,0.30
2022-08-01T13:22:44.202Z,0.30
2022-08-01T13:25:20.794Z,0.30
2022-08-01T13:27:53.640Z,0.40
2022-08-01T13:30:24.154Z,0.20
2022-08-01T13:33:00.838Z,0.40
2022-08-01T13:35:40.393Z,0.35
2022-08-01T13:38:02.904Z,0.40
2022-08-01T13:40:28.739Z,0.30
2022-08-01T13:42:55.373Z,0.40
2022-08-01T13:45:22.394Z,0.38
2022-08-01T13:48:13.181Z,0.40
2022-08-01T13:50:28.705Z,0.32
2022-08-01T13:52:51.141Z,0.40
2022-08-01T13:55:25.246Z,0.50
2022-08-01T13:57:49.040Z,0.40
2022-08-01T14:00:17.083Z,0.32
2022-08-01T14:02:41.958Z,0.30
2022-08-01T14:05:11.077Z,0.40
2022-08-01T14:07:38.229Z,0.20
2022-08-01T14:10:18.767Z,0.40
2022-08-01T14:12:42.903Z,0.20
2022-08-01T14:15:37.559Z,0.30
2022-08-01T14:18:05.745Z,0.45
2022-08-01T14:20:29.707Z,0.32
2022-08-01T14:22:53.564Z,0.38
2022-08-01T14:25:24.038Z,0.40
2022-08-01T14:28:12.045Z,0.63
2022-08-01T14:30:37.089Z,0.25
2022-08-01T14:32:59.691Z,0.50
2022-08-01T14:35:22.528Z,0.50
2022-08-01T14:37:45.584Z,0.40
2022-08-01T14:40:10.579Z,0.40
2022-08-01T14:42:35.276Z,0.70
2022-08-01T14:45:01.190Z,0.60
2022-08-01T14:47:32.942Z,0.38
2022-08-01T14:49:55.792Z,0.30
2022-08-01T14:55:01.752Z,0.30
2022-08-01T14:57:25.578Z,0.20
2022-08-01T14:59:57.521Z,0.30
2022-08-01T15:02:20.346Z,0.30
2022-08-01T15:04:46.365Z,0.40
2022-08-01T15:07:14.218Z,0.20
2022-08-01T15:09:37.498Z,0.35
2022-08-01T15:12:06.585Z,0.30
2022-08-01T15:14:52.205Z,0.38
2022-08-01T15:17:20.761Z,0.20
2022-08-01T15:19:49.530Z,0.30
2022-08-01T15:22:12.389Z,0.38
2022-08-01T15:24:34.817Z,0.20
2022-08-01T15:26:58.487Z,0.35
2022-08-01T15:29:24.716Z,0.40
2022-08-01T15:31:53.693Z,0.50
2022-08-01T15:34:23.850Z,0.30
2022-08-01T15:36:46.569Z,0.40
2022-08-01T15:39:12.189Z,3.80
2022-08-01T15:41:40.770Z,1.27
2022-08-01T15:44:04.641Z,0.70
2022-08-01T15:46:36.291Z,0.90
2022-08-01T15:49:08.090Z,0.65
2022-08-01T15:51:33.052Z,0.30
2022-08-01T15:53:58.219Z,0.60
2022-08-01T15:56:21.295Z,0.35
2022-08-01T15:58:47.425Z,0.30
2022-08-01T16:01:09.998Z,0.45
2022-08-01T16:03:33.543Z,0.35
2022-08-01T16:05:56.587Z,0.45
2022-08-01T16:08:19.018Z,0.32
2022-08-01T16:10:41.973Z,0.50
2022-08-01T16:13:07.516Z,0.50
2022-08-01T16:15:40.058Z,0.57
2022-08-01T16:18:09.662Z,0.32
2022-08-01T16:20:44.773Z,0.30
2022-08-01T16:23:11.336Z,0.55
2022-08-01T16:25:43.187Z,0.40
2022-08-01T16:28:16.575Z,0.30
2022-08-01T16:30:47.798Z,0.40
2022-08-01T16:35:57.881Z,0.30
2022-08-01T16:38:23.615Z,0.43
2022-08-01T16:40:50.356Z,0.50
2022-08-01T16:43:13.913Z,0.47
2022-08-01T16:45:42.511Z,0.50
2022-08-01T16:48:05.658Z,0.50
2022-08-01T16:50:54.289Z,0.47
2022-08-01T16:53:26.368Z,0.45
2022-08-01T16:55:51.897Z,0.35
2022-08-01T16:58:17.488Z,0.40
2022-08-01T17:00:42.990Z,0.40
2022-08-01T17:03:17.487Z,0.60
2022-08-01T17:05:55.015Z,0.22
2022-08-01T17:08:21.123Z,0.30
2022-08-01T17:10:59.311Z,0.52
2022-08-01T17:13:34.052Z,0.68
2022-08-01T17:15:56.822Z,0.50
2022-08-01T17:18:28.881Z,0.50
2022-08-01T17:20:54.914Z,0.68
2022-08-01T17:23:28.541Z,0.55
2022-08-01T17:25:57.594Z,0.55
2022-08-01T17:28:32.008Z,0.50
2022-08-01T17:30:57.662Z,0.32
2022-08-01T17:33:46.059Z,0.70
2022-08-01T17:36:09.952Z,0.50
2022-08-01T17:38:41.290Z,0.63
2022-08-01T17:41:06.201Z,0.60
2022-08-01T17:43:31.587Z,0.47
2022-08-01T17:46:03.476Z,0.50
2022-08-01T17:48:26.201Z,0.47
2022-08-01T17:50:56.736Z,0.98
2022-08-01T17:53:21.452Z,0.50
2022-08-01T17:55:54.115Z,0.70
2022-08-01T17:58:50.019Z,0.63
2022-08-01T18:01:05.538Z,0.70
2022-08-01T18:03:34.601Z,0.70
2022-08-01T18:06:04.192Z,1.05
2022-08-01T18:08:30.014Z,0.55
2022-08-01T18:11:01.674Z,0.68
2022-08-01T18:16:00.825Z,0.80
2022-08-01T18:18:33.093Z,0.82
2022-08-01T18:20:56.598Z,0.50
2022-08-01T18:23:23.816Z,1.13
2022-08-01T18:25:46.583Z,0.80
2022-08-01T18:28:19.741Z,1.00
2022-08-01T18:30:58.329Z,0.90
2022-08-01T18:36:06.530Z,0.90
2022-08-01T18:38:35.636Z,1.10
2022-08-01T18:41:07.712Z,0.93
2022-08-01T18:43:33.325Z,0.90
2022-08-01T18:46:03.311Z,0.90
2022-08-01T18:48:34.859Z,0.93
2022-08-01T18:50:57.509Z,0.90
2022-08-01T18:53:21.187Z,0.90
2022-08-01T18:55:53.573Z,1.10
2022-08-01T18:58:17.636Z,1.10
2022-08-01T19:00:41.415Z,0.90
2022-08-01T19:03:08.126Z,1.23
2022-08-01T19:05:34.968Z,0.80
2022-08-01T19:08:05.107Z,1.27
2022-08-01T19:10:34.111Z,1.30
2022-08-01T19:12:58.678Z,1.08
2022-08-01T19:15:24.208Z,1.23
2022-08-01T19:17:49.401Z,1.33
2022-08-01T19:20:21.216Z,1.10
2022-08-01T19:22:47.913Z,1.20
2022-08-01T19:25:18.109Z,1.30
2022-08-01T19:27:46.903Z,1.08
2022-08-01T19:30:16.388Z,1.25
2022-08-01T19:32:39.656Z,1.17
2022-08-01T19:35:13.775Z,1.13
2022-08-01T19:37:36.808Z,1.38
2022-08-01T19:40:10.090Z,1.23
2022-08-01T19:42:43.507Z,1.20
2022-08-01T19:45:12.377Z,1.30
2022-08-01T19:47:51.004Z,1.25
2022-08-01T19:50:20.304Z,1.40
2022-08-01T19:52:45.708Z,1.40
2022-08-01T19:55:09.018Z,1.35
2022-08-01T19:57:35.928Z,1.77
2022-08-01T20:00:23.886Z,1.25
2022-08-01T20:02:52.234Z,1.67
2022-08-01T20:05:17.970Z,1.40
2022-08-01T20:07:43.480Z,1.80
2022-08-01T20:10:06.296Z,1.70
2022-08-01T20:12:29.260Z,1.80
2022-08-01T20:14:58.152Z,1.60
2022-08-01T20:17:23.453Z,1.50
2022-08-01T20:19:46.828Z,1.70
2022-08-01T20:22:10.057Z,1.42
2022-08-01T20:24:54.420Z,1.30
2022-08-01T20:27:21.304Z,1.70
2022-08-01T20:29:45.555Z,1.70
2022-08-01T20:32:11.668Z,1.65
2022-08-01T20:34:39.755Z,1.52
2022-08-01T20:37:06.902Z,2.15
2022-08-01T20:39:32.864Z,1.83
2022-08-01T20:42:00.873Z,1.60
2022-08-01T20:44:23.715Z,1.52
2022-08-01T20:46:48.519Z,1.50
2022-08-01T20:54:31.472Z,1.75
2022-08-01T20:57:09.990Z,1.50
2022-08-01T20:59:54.678Z,1.88
2022-08-01T21:02:25.797Z,1.75
2022-08-01T21:07:55.614Z,1.73
2022-08-01T21:10:29.525Z,2.42
2022-08-01T21:13:11.507Z,1.90
2022-08-01T21:16:22.741Z,1.88
2022-08-01T21:18:37.142Z,2.10
2022-08-01T21:21:03.345Z,2.17
2022-08-01T21:23:46.933Z,2.50
2022-08-01T21:26:12.517Z,1.92
2022-08-01T21:28:34.976Z,1.80
2022-08-01T21:30:58.532Z,2.42
2022-08-01T21:33:23.911Z,2.10
2022-08-01T21:35:47.554Z,1.90
2022-08-01T21:38:10.559Z,2.08
2022-08-01T21:40:34.476Z,2.00
2022-08-01T21:42:57.826Z,2.05
2022-08-01T21:45:21.177Z,2.15
2022-08-01T21:47:44.005Z,2.40
2022-08-01T21:50:09.504Z,2.17
2022-08-01T21:52:35.541Z,2.10
2022-08-01T21:54:57.968Z,2.35
2022-08-01T21:57:40.360Z,2.47
2022-08-01T22:00:20.982Z,2.33
2022-08-01T22:02:55.799Z,2.72
2022-08-01T22:05:22.585Z,3.10
2022-08-01T22:08:07.945Z,2.53
2022-08-01T22:10:31.606Z,2.35
2022-08-01T22:12:54.030Z,2.35
2022-08-01T22:15:16.636Z,2.88
2022-08-01T22:17:39.329Z,2.67
2022-08-01T22:20:01.716Z,2.65
2022-08-01T22:22:34.260Z,2.33
2022-08-01T22:25:07.719Z,2.60
2022-08-01T22:28:08.692Z,2.35
2022-08-01T22:30:13.224Z,2.33
2022-08-01T22:32:37.331Z,2.63
2022-08-01T22:35:00.111Z,2.15
2022-08-01T22:37:56.042Z,2.95
2022-08-01T22:40:08.870Z,2.78
2022-08-01T22:42:38.887Z,2.47
2022-08-01T22:45:07.203Z,2.65
2022-08-01T22:47:44.793Z,2.92
2022-08-01T22:50:07.839Z,2.70
2022-08-01T22:52:30.780Z,2.90
2022-08-01T22:54:59.470Z,2.33
2022-08-01T22:57:27.783Z,2.65
2022-08-01T22:59:54.707Z,3.55
2022-08-01T23:02:17.906Z,2.83
2022-08-01T23:04:43.859Z,2.78
2022-08-01T23:07:07.092Z,2.60
2022-08-01T23:09:52.552Z,2.70
2022-08-01T23:12:13.758Z,2.40
2022-08-01T23:14:36.918Z,2.17
2022-08-01T23:17:03.175Z,2.10
2022-08-01T23:19:45.448Z,2.42
2022-08-01T23:22:08.293Z,2.35
2022-08-01T23:24:32.416Z,2.50
2022-08-01T23:26:56.187Z,2.28
2022-08-01T23:29:18.420Z,3.10
2022-08-01T23:32:00.255Z,2.95
2022-08-01T23:34:23.656Z,2.75
2022-08-01T23:36:49.474Z,2.47
2022-08-01T23:39:11.793Z,2.50
2022-08-01T23:41:57.982Z,2.30
2022-08-01T23:44:16.453Z,2.40
2022-08-01T23:46:38.717Z,3.05
2022-08-01T23:49:01.512Z,2.33
2022-08-01T23:51:24.921Z,2.70
2022-08-01T23:53:47.349Z,2.55
2022-08-01T23:56:10.376Z,2.47
2022-08-01T23:58:35.006Z,2.70
